BKP131 VTBS-VTSM
Flight info
| Callsign | BKP131 |
|---|---|
| Flight time | 0h 47m |
| Altitude | 31000 |
| Route | KASNI1G KASNI M757 MABKO W33 UPNEP DCT |
| Aircraft | A359/H-SDE2E3GHIJ3J4J5LM1ORWXY/LB1D1 |
Departure
| Time | 2026-05-07 10:58 |
|---|---|
| Airport | Suvarnabhumi Airport (VTBS) |
Arrival
| Time | 2026-05-07 11:45 |
|---|---|
| Airport | Samui International Airport (VTSM) |
| Time | Latitude | Longitude | Altitude | Speed | Heading |
|---|---|---|---|---|---|
| 2026-05-07 10:38 | 13.69343 | 100.74575 | 14 ft | 0 kts | 194° |
| 2026-05-07 10:50 | 13.69358 | 100.74578 | -14 ft | 4 kts | 191° |
| 2026-05-07 10:50 | 13.69385 | 100.74582 | 16 ft | 4 kts | 178° |
| 2026-05-07 10:50 | 13.69411 | 100.74577 | 15 ft | 4 kts | 156° |
| 2026-05-07 10:51 | 13.69430 | 100.74568 | 14 ft | 4 kts | 165° |
| 2026-05-07 10:51 | 13.69455 | 100.74567 | 16 ft | 4 kts | 199° |
| 2026-05-07 10:51 | 13.69479 | 100.74577 | 16 ft | 2 kts | 195° |
| 2026-05-07 10:51 | 13.69481 | 100.74578 | 16 ft | 0 kts | 194° |
| 2026-05-07 10:54 | 13.69481 | 100.74577 | 13 ft | 0 kts | 194° |
| 2026-05-07 10:54 | 13.69470 | 100.74574 | 13 ft | 3 kts | 199° |
| 2026-05-07 10:54 | 13.69446 | 100.74526 | 13 ft | 20 kts | 275° |
| 2026-05-07 10:54 | 13.69477 | 100.74390 | 13 ft | 17 kts | 277° |
| 2026-05-07 10:55 | 13.69554 | 100.74291 | 13 ft | 18 kts | 6° |
| 2026-05-07 10:55 | 13.69627 | 100.74315 | 13 ft | 17 kts | 10° |
| 2026-05-07 10:55 | 13.69753 | 100.74346 | 14 ft | 20 kts | 14° |
| 2026-05-07 10:55 | 13.69871 | 100.74374 | 13 ft | 13 kts | 13° |
| 2026-05-07 10:56 | 13.70022 | 100.74417 | 14 ft | 30 kts | 16° |
| 2026-05-07 10:56 | 13.70205 | 100.74462 | 14 ft | 24 kts | 9° |
| 2026-05-07 10:56 | 13.70329 | 100.74442 | 14 ft | 14 kts | 306° |
| 2026-05-07 10:56 | 13.70335 | 100.74432 | 14 ft | 0 kts | 295° |
| 2026-05-07 10:57 | 13.70342 | 100.74369 | 14 ft | 18 kts | 269° |
| 2026-05-07 10:57 | 13.70270 | 100.74300 | 15 ft | 18 kts | 177° |
| 2026-05-07 10:57 | 13.69911 | 100.74204 | 13 ft | 90 kts | 195° |
| 2026-05-07 10:58 | 13.69100 | 100.73989 | 14 ft | 147 kts | 194° |
| 2026-05-07 10:58 | 13.67969 | 100.73676 | 115 ft | 184 kts | 192° |
| 2026-05-07 10:58 | 13.66695 | 100.73334 | 733 ft | 192 kts | 191° |
| 2026-05-07 10:58 | 13.65317 | 100.72977 | 1080 ft | 216 kts | 193° |
| 2026-05-07 10:59 | 13.63784 | 100.72580 | 1483 ft | 240 kts | 194° |
| 2026-05-07 10:59 | 13.62112 | 100.72143 | 2152 ft | 252 kts | 193° |
| 2026-05-07 10:59 | 13.60382 | 100.71688 | 3000 ft | 260 kts | 193° |
| 2026-05-07 10:59 | 13.58609 | 100.71222 | 3841 ft | 267 kts | 193° |
| 2026-05-07 11:00 | 13.56793 | 100.70744 | 4699 ft | 272 kts | 193° |
| 2026-05-07 11:00 | 13.54943 | 100.70258 | 5554 ft | 276 kts | 192° |
| 2026-05-07 11:00 | 13.53070 | 100.69768 | 6400 ft | 280 kts | 192° |
| 2026-05-07 11:00 | 13.51136 | 100.69497 | 7180 ft | 283 kts | 181° |
| 2026-05-07 11:01 | 13.49154 | 100.69362 | 7980 ft | 287 kts | 181° |
| 2026-05-07 11:01 | 13.47153 | 100.69227 | 8767 ft | 291 kts | 181° |
| 2026-05-07 11:01 | 13.45119 | 100.69091 | 9551 ft | 295 kts | 181° |
| 2026-05-07 11:01 | 13.43039 | 100.68953 | 10048 ft | 309 kts | 181° |
| 2026-05-07 11:02 | 13.40813 | 100.68805 | 10249 ft | 332 kts | 182° |
| 2026-05-07 11:02 | 13.38422 | 100.68646 | 10416 ft | 353 kts | 182° |
| 2026-05-07 11:02 | 13.35939 | 100.68475 | 10884 ft | 361 kts | 182° |
| 2026-05-07 11:02 | 13.33419 | 100.68298 | 11482 ft | 365 kts | 182° |
| 2026-05-07 11:03 | 13.30899 | 100.68119 | 12087 ft | 369 kts | 182° |
| 2026-05-07 11:03 | 13.28325 | 100.67942 | 12702 ft | 372 kts | 181° |
| 2026-05-07 11:03 | 13.25726 | 100.67840 | 13327 ft | 375 kts | 180° |
| 2026-05-07 11:03 | 13.23107 | 100.67812 | 13931 ft | 377 kts | 179° |
| 2026-05-07 11:04 | 13.20470 | 100.67821 | 14483 ft | 380 kts | 178° |
| 2026-05-07 11:04 | 13.17819 | 100.67840 | 15013 ft | 383 kts | 178° |
| 2026-05-07 11:04 | 13.15136 | 100.67854 | 15553 ft | 386 kts | 178° |
| 2026-05-07 11:04 | 13.12437 | 100.67859 | 16081 ft | 389 kts | 179° |
| 2026-05-07 11:05 | 13.09716 | 100.67853 | 16621 ft | 393 kts | 179° |
| 2026-05-07 11:05 | 13.06970 | 100.67835 | 17149 ft | 396 kts | 179° |
| 2026-05-07 11:05 | 13.04203 | 100.67783 | 17682 ft | 400 kts | 180° |
| 2026-05-07 11:05 | 13.01445 | 100.67703 | 18195 ft | 403 kts | 180° |
| 2026-05-07 11:06 | 12.98626 | 100.67613 | 18662 ft | 407 kts | 180° |
| 2026-05-07 11:06 | 12.95791 | 100.67522 | 19129 ft | 410 kts | 180° |
| 2026-05-07 11:06 | 12.92927 | 100.67434 | 19610 ft | 413 kts | 180° |
| 2026-05-07 11:06 | 12.90042 | 100.67352 | 20077 ft | 417 kts | 180° |
| 2026-05-07 11:07 | 12.87132 | 100.67277 | 20533 ft | 420 kts | 180° |
| 2026-05-07 11:07 | 12.84196 | 100.67204 | 20982 ft | 423 kts | 180° |
| 2026-05-07 11:07 | 12.81235 | 100.67132 | 21420 ft | 426 kts | 179° |
| 2026-05-07 11:07 | 12.78264 | 100.67058 | 21841 ft | 429 kts | 179° |
| 2026-05-07 11:08 | 12.75270 | 100.66980 | 22251 ft | 432 kts | 179° |
| 2026-05-07 11:08 | 12.72255 | 100.66900 | 22644 ft | 435 kts | 179° |
| 2026-05-07 11:08 | 12.69218 | 100.66819 | 23021 ft | 438 kts | 179° |
| 2026-05-07 11:08 | 12.66166 | 100.66738 | 23383 ft | 441 kts | 179° |
| 2026-05-07 11:09 | 12.63080 | 100.66657 | 23683 ft | 443 kts | 179° |
| 2026-05-07 11:09 | 12.59995 | 100.66576 | 23979 ft | 445 kts | 179° |
| 2026-05-07 11:09 | 12.56889 | 100.66495 | 24277 ft | 448 kts | 179° |
| 2026-05-07 11:09 | 12.53769 | 100.66413 | 24571 ft | 450 kts | 179° |
| 2026-05-07 11:10 | 12.50630 | 100.66334 | 24867 ft | 452 kts | 180° |
| 2026-05-07 11:10 | 12.47475 | 100.66255 | 25147 ft | 454 kts | 180° |
| 2026-05-07 11:10 | 12.44311 | 100.66171 | 25431 ft | 456 kts | 180° |
| 2026-05-07 11:10 | 12.41130 | 100.66084 | 25714 ft | 459 kts | 180° |
| 2026-05-07 11:11 | 12.37928 | 100.65996 | 25987 ft | 461 kts | 180° |
| 2026-05-07 11:11 | 12.34715 | 100.65910 | 26256 ft | 463 kts | 180° |
| 2026-05-07 11:11 | 12.31494 | 100.65826 | 26516 ft | 465 kts | 180° |
| 2026-05-07 11:11 | 12.28253 | 100.65743 | 26776 ft | 467 kts | 180° |
| 2026-05-07 11:12 | 12.25041 | 100.65661 | 27030 ft | 469 kts | 180° |
| 2026-05-07 11:12 | 12.21771 | 100.65578 | 27289 ft | 471 kts | 180° |
| 2026-05-07 11:12 | 12.18449 | 100.65492 | 27541 ft | 473 kts | 180° |
| 2026-05-07 11:12 | 12.15190 | 100.65409 | 27769 ft | 476 kts | 180° |
| 2026-05-07 11:13 | 12.11876 | 100.65326 | 28021 ft | 478 kts | 180° |
| 2026-05-07 11:13 | 12.08541 | 100.65239 | 28273 ft | 480 kts | 180° |
| 2026-05-07 11:13 | 12.05198 | 100.65151 | 28526 ft | 482 kts | 180° |
| 2026-05-07 11:13 | 12.01836 | 100.65065 | 28769 ft | 484 kts | 180° |
| 2026-05-07 11:14 | 11.98447 | 100.64979 | 29006 ft | 486 kts | 180° |
| 2026-05-07 11:14 | 11.95084 | 100.64891 | 29243 ft | 488 kts | 180° |
| 2026-05-07 11:14 | 11.91690 | 100.64804 | 29513 ft | 488 kts | 180° |
| 2026-05-07 11:14 | 11.88281 | 100.64716 | 29855 ft | 488 kts | 180° |
| 2026-05-07 11:15 | 11.84905 | 100.64630 | 30153 ft | 487 kts | 180° |
| 2026-05-07 11:15 | 11.81527 | 100.64545 | 30467 ft | 486 kts | 180° |
| 2026-05-07 11:15 | 11.78140 | 100.64458 | 30734 ft | 485 kts | 180° |
| 2026-05-07 11:15 | 11.74772 | 100.64370 | 30812 ft | 483 kts | 180° |
| 2026-05-07 11:16 | 11.68097 | 100.64201 | 30827 ft | 481 kts | 180° |
| 2026-05-07 11:16 | 11.61420 | 100.64035 | 30827 ft | 480 kts | 180° |
| 2026-05-07 11:17 | 11.54732 | 100.63870 | 30827 ft | 480 kts | 180° |
| 2026-05-07 11:17 | 11.48026 | 100.63703 | 30827 ft | 480 kts | 180° |
| 2026-05-07 11:18 | 11.41387 | 100.63535 | 30830 ft | 480 kts | 180° |
| 2026-05-07 11:18 | 11.34705 | 100.63363 | 30833 ft | 480 kts | 180° |
| 2026-05-07 11:19 | 11.28028 | 100.63187 | 30836 ft | 480 kts | 180° |
| 2026-05-07 11:19 | 11.21348 | 100.63027 | 30835 ft | 480 kts | 180° |
| 2026-05-07 11:20 | 11.14663 | 100.62861 | 30833 ft | 480 kts | 180° |
| 2026-05-07 11:20 | 11.07987 | 100.62684 | 30838 ft | 479 kts | 181° |
| 2026-05-07 11:21 | 11.01309 | 100.62518 | 30842 ft | 479 kts | 181° |
| 2026-05-07 11:21 | 10.94659 | 100.62355 | 30842 ft | 479 kts | 181° |
| 2026-05-07 11:22 | 10.88005 | 100.62190 | 30844 ft | 478 kts | 181° |
| 2026-05-07 11:22 | 10.81342 | 100.62022 | 30843 ft | 478 kts | 180° |
| 2026-05-07 11:23 | 10.74724 | 100.61857 | 30718 ft | 479 kts | 181° |
| 2026-05-07 11:23 | 10.71395 | 100.61773 | 30492 ft | 479 kts | 181° |
| 2026-05-07 11:23 | 10.68059 | 100.61688 | 30266 ft | 479 kts | 181° |
| 2026-05-07 11:24 | 10.64722 | 100.61605 | 30043 ft | 480 kts | 181° |
| 2026-05-07 11:24 | 10.61384 | 100.61520 | 29809 ft | 480 kts | 181° |
| 2026-05-07 11:24 | 10.58043 | 100.61436 | 29543 ft | 480 kts | 181° |
| 2026-05-07 11:24 | 10.54709 | 100.61352 | 28716 ft | 480 kts | 181° |
| 2026-05-07 11:25 | 10.51338 | 100.61267 | 27419 ft | 487 kts | 180° |
| 2026-05-07 11:25 | 10.47931 | 100.61184 | 26293 ft | 490 kts | 180° |
| 2026-05-07 11:25 | 10.44530 | 100.61101 | 25532 ft | 485 kts | 180° |
| 2026-05-07 11:25 | 10.41175 | 100.61020 | 24721 ft | 481 kts | 180° |
| 2026-05-07 11:26 | 10.37838 | 100.60940 | 23920 ft | 478 kts | 180° |
| 2026-05-07 11:26 | 10.34524 | 100.60858 | 23065 ft | 475 kts | 180° |
| 2026-05-07 11:26 | 10.31230 | 100.60776 | 22246 ft | 470 kts | 180° |
| 2026-05-07 11:26 | 10.27984 | 100.60696 | 21465 ft | 464 kts | 180° |
| 2026-05-07 11:27 | 10.24774 | 100.60617 | 20693 ft | 458 kts | 180° |
| 2026-05-07 11:27 | 10.21614 | 100.60538 | 19946 ft | 452 kts | 180° |
| 2026-05-07 11:27 | 10.18488 | 100.60458 | 19229 ft | 446 kts | 180° |
| 2026-05-07 11:27 | 10.15451 | 100.60382 | 18543 ft | 439 kts | 180° |
| 2026-05-07 11:28 | 10.12400 | 100.60307 | 17849 ft | 433 kts | 180° |
| 2026-05-07 11:28 | 10.09417 | 100.60235 | 17177 ft | 426 kts | 180° |
| 2026-05-07 11:28 | 10.06463 | 100.60164 | 16537 ft | 420 kts | 180° |
| 2026-05-07 11:28 | 10.03543 | 100.60096 | 15892 ft | 416 kts | 179° |
| 2026-05-07 11:29 | 10.00665 | 100.60029 | 15237 ft | 414 kts | 179° |
| 2026-05-07 11:29 | 9.97782 | 100.59961 | 14568 ft | 412 kts | 179° |
| 2026-05-07 11:29 | 9.94950 | 100.59890 | 13889 ft | 410 kts | 179° |
| 2026-05-07 11:29 | 9.92097 | 100.59817 | 13138 ft | 409 kts | 179° |
| 2026-05-07 11:30 | 9.89252 | 100.59745 | 12456 ft | 404 kts | 179° |
| 2026-05-07 11:30 | 9.86465 | 100.59676 | 11731 ft | 401 kts | 179° |
| 2026-05-07 11:30 | 9.83682 | 100.59555 | 11014 ft | 398 kts | 185° |
| 2026-05-07 11:30 | 9.81029 | 100.58877 | 10607 ft | 389 kts | 200° |
| 2026-05-07 11:31 | 9.78717 | 100.57639 | 10487 ft | 373 kts | 213° |
| 2026-05-07 11:31 | 9.76793 | 100.55967 | 10371 ft | 357 kts | 224° |
| 2026-05-07 11:31 | 9.75067 | 100.54199 | 10254 ft | 343 kts | 224° |
| 2026-05-07 11:31 | 9.73437 | 100.52521 | 10140 ft | 330 kts | 224° |
| 2026-05-07 11:32 | 9.70639 | 100.49048 | 9841 ft | 313 kts | 243° |
| 2026-05-07 11:32 | 9.69919 | 100.46983 | 9473 ft | 313 kts | 258° |
| 2026-05-07 11:32 | 9.69528 | 100.44814 | 9142 ft | 311 kts | 259° |
| 2026-05-07 11:33 | 9.69146 | 100.42668 | 8783 ft | 309 kts | 259° |
| 2026-05-07 11:33 | 9.68760 | 100.40524 | 8422 ft | 308 kts | 259° |
| 2026-05-07 11:33 | 9.68374 | 100.38392 | 8072 ft | 307 kts | 259° |
| 2026-05-07 11:33 | 9.67987 | 100.36272 | 7730 ft | 305 kts | 259° |
| 2026-05-07 11:34 | 9.67600 | 100.34163 | 7400 ft | 303 kts | 258° |
| 2026-05-07 11:34 | 9.67215 | 100.32067 | 7062 ft | 302 kts | 259° |
| 2026-05-07 11:34 | 9.66833 | 100.29974 | 6731 ft | 301 kts | 259° |
| 2026-05-07 11:34 | 9.66456 | 100.27895 | 6408 ft | 299 kts | 259° |
| 2026-05-07 11:35 | 9.66079 | 100.25825 | 6068 ft | 298 kts | 258° |
| 2026-05-07 11:35 | 9.65705 | 100.23764 | 5746 ft | 296 kts | 259° |
| 2026-05-07 11:35 | 9.65331 | 100.21718 | 5398 ft | 295 kts | 258° |
| 2026-05-07 11:35 | 9.64965 | 100.19711 | 5083 ft | 293 kts | 258° |
| 2026-05-07 11:36 | 9.64598 | 100.17699 | 4598 ft | 289 kts | 258° |
| 2026-05-07 11:36 | 9.64305 | 100.15677 | 3842 ft | 291 kts | 270° |
| 2026-05-07 11:36 | 9.64848 | 100.13719 | 3100 ft | 292 kts | 303° |
| 2026-05-07 11:36 | 9.66261 | 100.12266 | 2356 ft | 290 kts | 328° |
| 2026-05-07 11:37 | 9.68100 | 100.11486 | 1670 ft | 285 kts | 351° |
| 2026-05-07 11:37 | 9.69993 | 100.11448 | 1464 ft | 261 kts | 12° |
| 2026-05-07 11:37 | 9.71636 | 100.11958 | 1418 ft | 233 kts | 21° |
| 2026-05-07 11:37 | 9.73161 | 100.12121 | 1428 ft | 219 kts | 351° |
| 2026-05-07 11:38 | 9.74565 | 100.11557 | 1431 ft | 219 kts | 327° |
| 2026-05-07 11:38 | 9.75630 | 100.10548 | 1461 ft | 199 kts | 307° |
| 2026-05-07 11:38 | 9.76241 | 100.09383 | 1424 ft | 177 kts | 287° |
| 2026-05-07 11:38 | 9.76427 | 100.08547 | 1448 ft | 162 kts | 275° |
| 2026-05-07 11:39 | 9.76440 | 100.07712 | 1440 ft | 157 kts | 262° |
| 2026-05-07 11:39 | 9.76195 | 100.06660 | 1434 ft | 149 kts | 245° |
| 2026-05-07 11:39 | 9.75695 | 100.05751 | 1421 ft | 146 kts | 229° |
| 2026-05-07 11:39 | 9.75001 | 100.05024 | 1434 ft | 144 kts | 216° |
| 2026-05-07 11:40 | 9.74169 | 100.04509 | 1430 ft | 141 kts | 198° |
| 2026-05-07 11:40 | 9.73244 | 100.04224 | 1437 ft | 138 kts | 185° |
| 2026-05-07 11:40 | 9.72291 | 100.04179 | 1437 ft | 134 kts | 172° |
| 2026-05-07 11:40 | 9.71394 | 100.04298 | 1435 ft | 133 kts | 168° |
| 2026-05-07 11:41 | 9.70474 | 100.04423 | 1428 ft | 134 kts | 169° |
| 2026-05-07 11:41 | 9.69541 | 100.04548 | 1436 ft | 135 kts | 169° |
| 2026-05-07 11:41 | 9.68611 | 100.04671 | 1435 ft | 134 kts | 169° |
| 2026-05-07 11:41 | 9.67691 | 100.04795 | 1427 ft | 134 kts | 169° |
| 2026-05-07 11:42 | 9.66763 | 100.04920 | 1434 ft | 135 kts | 169° |
| 2026-05-07 11:42 | 9.65831 | 100.05045 | 1436 ft | 136 kts | 169° |
| 2026-05-07 11:42 | 9.64897 | 100.05169 | 1429 ft | 136 kts | 170° |
| 2026-05-07 11:42 | 9.63955 | 100.05282 | 1399 ft | 137 kts | 170° |
| 2026-05-07 11:43 | 9.63013 | 100.05387 | 1263 ft | 135 kts | 171° |
| 2026-05-07 11:43 | 9.62077 | 100.05489 | 1190 ft | 136 kts | 172° |
| 2026-05-07 11:43 | 9.61137 | 100.05589 | 1127 ft | 136 kts | 173° |
| 2026-05-07 11:43 | 9.60198 | 100.05688 | 979 ft | 135 kts | 172° |
| 2026-05-07 11:44 | 9.59260 | 100.05786 | 818 ft | 136 kts | 173° |
| 2026-05-07 11:44 | 9.58635 | 100.05850 | 672 ft | 135 kts | 172° |
| 2026-05-07 11:44 | 9.57694 | 100.05946 | 516 ft | 136 kts | 173° |
| 2026-05-07 11:44 | 9.56454 | 100.06083 | 253 ft | 134 kts | 173° |
| 2026-05-07 11:45 | 9.55839 | 100.06146 | 145 ft | 134 kts | 173° |
| 2026-05-07 11:45 | 9.54934 | 100.06238 | 51 ft | 116 kts | 174° |
| 2026-05-07 11:45 | 9.54430 | 100.06287 | 48 ft | 29 kts | 174° |
| 2026-05-07 11:45 | 9.54306 | 100.06300 | 46 ft | 28 kts | 173° |
| 2026-05-07 11:46 | 9.54087 | 100.06323 | 43 ft | 33 kts | 177° |
| 2026-05-07 11:46 | 9.53890 | 100.06309 | 46 ft | 15 kts | 181° |
| 2026-05-07 11:46 | 9.53872 | 100.06342 | 46 ft | 2 kts | 9° |
| 2026-05-07 11:46 | 9.54032 | 100.06322 | 44 ft | 35 kts | 356° |
| 2026-05-07 11:47 | 9.54322 | 100.06296 | 47 ft | 45 kts | 353° |
| 2026-05-07 11:47 | 9.54575 | 100.06270 | 52 ft | 36 kts | 355° |
| 2026-05-07 11:47 | 9.54830 | 100.06246 | 54 ft | 38 kts | 356° |
| 2026-05-07 11:47 | 9.55002 | 100.06267 | 54 ft | 16 kts | 55° |
| 2026-05-07 11:48 | 9.55043 | 100.06319 | 53 ft | 8 kts | 63° |
| 2026-05-07 11:48 | 9.55037 | 100.06304 | 52 ft | 1 kts | 69° |
| 2026-05-07 11:48 | 9.55044 | 100.06323 | 53 ft | 5 kts | 88° |
| 2026-05-07 11:48 | 9.55046 | 100.06351 | 52 ft | 0 kts | 86° |